sensor_id;sensor_type;location;lat;lon;timestamp;pressure;altitude;pressure_sealevel;temperature;humidity
74627;BME280;63132;52.268;5.192;2022-11-15T00:01:26;100717.78;;;5.37;98.07
74627;BME280;63132;52.268;5.192;2022-11-15T00:03:52;100719.63;;;5.29;99.00
74627;BME280;63132;52.268;5.192;2022-11-15T00:06:17;100724.31;;;5.28;99.69
74627;BME280;63132;52.268;5.192;2022-11-15T00:08:43;100719.28;;;5.61;98.04
74627;BME280;63132;52.268;5.192;2022-11-15T00:11:11;100725.47;;;5.54;97.24
74627;BME280;63132;52.268;5.192;2022-11-15T00:13:37;100714.88;;;5.56;98.00
74627;BME280;63132;52.268;5.192;2022-11-15T00:16:02;100709.16;;;5.38;98.55
74627;BME280;63132;52.268;5.192;2022-11-15T00:18:28;100714.56;;;5.61;98.39
74627;BME280;63132;52.268;5.192;2022-11-15T00:20:54;100693.22;;;5.81;96.97
74627;BME280;63132;52.268;5.192;2022-11-15T00:23:20;100684.75;;;5.63;97.99
74627;BME280;63132;52.268;5.192;2022-11-15T00:25:45;100699.13;;;5.83;96.58
74627;BME280;63132;52.268;5.192;2022-11-15T00:28:10;100692.31;;;5.70;96.90
74627;BME280;63132;52.268;5.192;2022-11-15T00:30:36;100691.97;;;5.75;98.06
74627;BME280;63132;52.268;5.192;2022-11-15T00:33:05;100695.63;;;5.52;99.14
74627;BME280;63132;52.268;5.192;2022-11-15T00:35:34;100699.53;;;5.51;99.64
74627;BME280;63132;52.268;5.192;2022-11-15T00:38:00;100698.59;;;5.70;99.96
74627;BME280;63132;52.268;5.192;2022-11-15T00:40:26;100705.53;;;5.61;99.65
74627;BME280;63132;52.268;5.192;2022-11-15T00:42:52;100705.09;;;5.59;100.00
74627;BME280;63132;52.268;5.192;2022-11-15T00:45:17;100703.19;;;5.63;100.00
74627;BME280;63132;52.268;5.192;2022-11-15T00:47:46;100692.25;;;5.96;99.69
74627;BME280;63132;52.268;5.192;2022-11-15T00:50:12;100685.88;;;5.89;99.46
74627;BME280;63132;52.268;5.192;2022-11-15T00:52:37;100684.34;;;5.91;99.69
74627;BME280;63132;52.268;5.192;2022-11-15T00:55:03;100686.56;;;5.82;99.65
74627;BME280;63132;52.268;5.192;2022-11-15T00:57:28;100674.28;;;5.72;100.00
74627;BME280;63132;52.268;5.192;2022-11-15T00:59:54;100671.53;;;5.72;100.00
74627;BME280;63132;52.268;5.192;2022-11-15T01:02:19;100668.16;;;5.86;100.00
74627;BME280;63132;52.268;5.192;2022-11-15T01:04:44;100671.34;;;5.58;100.00
74627;BME280;63132;52.268;5.192;2022-11-15T01:07:10;100671.09;;;5.67;100.00
74627;BME280;63132;52.268;5.192;2022-11-15T01:09:35;100669.91;;;5.98;100.00
74627;BME280;63132;52.268;5.192;2022-11-15T01:12:01;100669.06;;;5.64;100.00
74627;BME280;63132;52.268;5.192;2022-11-15T01:14:26;100671.78;;;5.60;100.00
74627;BME280;63132;52.268;5.192;2022-11-15T01:16:52;100670.56;;;5.57;100.00
74627;BME280;63132;52.268;5.192;2022-11-15T01:19:17;100661.00;;;5.78;100.00
74627;BME280;63132;52.268;5.192;2022-11-15T01:21:42;100665.47;;;5.90;100.00
74627;BME280;63132;52.268;5.192;2022-11-15T01:24:11;100654.59;;;6.00;100.00
74627;BME280;63132;52.268;5.192;2022-11-15T01:26:37;100663.06;;;5.88;100.00
74627;BME280;63132;52.268;5.192;2022-11-15T01:29:02;100653.59;;;5.82;100.00
74627;BME280;63132;52.268;5.192;2022-11-15T01:31:28;100661.50;;;5.87;100.00
74627;BME280;63132;52.268;5.192;2022-11-15T01:33:53;100661.03;;;6.15;100.00
74627;BME280;63132;52.268;5.192;2022-11-15T01:36:21;100649.22;;;6.11;100.00
74627;BME280;63132;52.268;5.192;2022-11-15T01:38:53;100651.47;;;6.02;100.00
74627;BME280;63132;52.268;5.192;2022-11-15T01:41:22;100640.41;;;5.95;100.00
74627;BME280;63132;52.268;5.192;2022-11-15T01:43:56;100643.69;;;6.07;100.00
74627;BME280;63132;52.268;5.192;2022-11-15T01:48:48;100639.56;;;6.28;100.00
74627;BME280;63132;52.268;5.192;2022-11-15T01:51:19;100638.44;;;6.36;100.00
74627;BME280;63132;52.268;5.192;2022-11-15T01:53:48;100629.66;;;6.20;100.00
74627;BME280;63132;52.268;5.192;2022-11-15T01:56:18;100633.94;;;6.17;100.00
74627;BME280;63132;52.268;5.192;2022-11-15T01:58:45;100637.84;;;6.13;100.00
74627;BME280;63132;52.268;5.192;2022-11-15T02:01:12;100631.63;;;6.19;100.00
74627;BME280;63132;52.268;5.192;2022-11-15T02:03:51;100624.97;;;6.20;100.00
74627;BME280;63132;52.268;5.192;2022-11-15T02:06:20;100628.97;;;6.30;100.00
74627;BME280;63132;52.268;5.192;2022-11-15T02:08:46;100628.69;;;6.42;100.00
74627;BME280;63132;52.268;5.192;2022-11-15T02:11:12;100621.22;;;6.46;100.00
74627;BME280;63132;52.268;5.192;2022-11-15T02:13:37;100623.91;;;6.35;100.00
74627;BME280;63132;52.268;5.192;2022-11-15T02:19:02;100610.28;;;6.53;100.00
74627;BME280;63132;52.268;5.192;2022-11-15T02:22:09;100606.41;;;6.58;100.00
74627;BME280;63132;52.268;5.192;2022-11-15T02:30:38;100588.41;;;6.71;100.00
74627;BME280;63132;52.268;5.192;2022-11-15T02:33:41;100592.06;;;6.86;100.00
74627;BME280;63132;52.268;5.192;2022-11-15T02:41:48;100581.53;;;7.02;100.00
74627;BME280;63132;52.268;5.192;2022-11-15T02:44:23;100571.28;;;7.06;100.00
74627;BME280;63132;52.268;5.192;2022-11-15T02:47:00;100569.66;;;6.91;100.00
74627;BME280;63132;52.268;5.192;2022-11-15T02:49:50;100565.00;;;7.02;100.00
74627;BME280;63132;52.268;5.192;2022-11-15T02:52:20;100560.28;;;7.06;100.00
74627;BME280;63132;52.268;5.192;2022-11-15T02:54:59;100565.00;;;7.06;100.00
74627;BME280;63132;52.268;5.192;2022-11-15T02:57:45;100555.97;;;7.05;100.00
74627;BME280;63132;52.268;5.192;2022-11-15T03:00:19;100547.34;;;7.10;100.00
74627;BME280;63132;52.268;5.192;2022-11-15T03:05:35;100546.94;;;7.12;100.00
74627;BME280;63132;52.268;5.192;2022-11-15T03:08:08;100542.28;;;7.23;100.00
74627;BME280;63132;52.268;5.192;2022-11-15T03:16:37;100548.19;;;7.29;100.00
74627;BME280;63132;52.268;5.192;2022-11-15T03:21:37;100566.00;;;7.56;100.00
74627;BME280;63132;52.268;5.192;2022-11-15T03:24:06;100560.47;;;7.53;100.00
74627;BME280;63132;52.268;5.192;2022-11-15T03:26:35;100555.34;;;7.58;100.00
74627;BME280;63132;52.268;5.192;2022-11-15T03:29:08;100546.34;;;7.72;100.00
74627;BME280;63132;52.268;5.192;2022-11-15T03:31:39;100554.22;;;7.73;100.00
74627;BME280;63132;52.268;5.192;2022-11-15T03:34:24;100550.28;;;7.82;100.00
74627;BME280;63132;52.268;5.192;2022-11-15T03:36:52;100545.94;;;7.63;100.00
74627;BME280;63132;52.268;5.192;2022-11-15T03:39:18;100545.16;;;7.76;100.00
74627;BME280;63132;52.268;5.192;2022-11-15T03:47:12;100558.94;;;7.73;100.00
74627;BME280;63132;52.268;5.192;2022-11-15T03:49:45;100551.09;;;7.82;100.00
74627;BME280;63132;52.268;5.192;2022-11-15T03:52:12;100555.00;;;7.70;100.00
74627;BME280;63132;52.268;5.192;2022-11-15T03:54:56;100549.50;;;7.85;100.00
74627;BME280;63132;52.268;5.192;2022-11-15T03:57:22;100545.97;;;7.84;100.00
74627;BME280;63132;52.268;5.192;2022-11-15T03:59:47;100549.13;;;8.04;100.00
74627;BME280;63132;52.268;5.192;2022-11-15T04:02:13;100542.41;;;7.76;100.00
74627;BME280;63132;52.268;5.192;2022-11-15T04:04:39;100544.41;;;8.01;100.00
74627;BME280;63132;52.268;5.192;2022-11-15T04:07:04;100546.38;;;7.93;100.00
74627;BME280;63132;52.268;5.192;2022-11-15T04:09:29;100547.94;;;7.94;100.00
74627;BME280;63132;52.268;5.192;2022-11-15T04:11:55;100539.28;;;8.14;100.00
74627;BME280;63132;52.268;5.192;2022-11-15T04:14:20;100542.06;;;8.07;100.00
74627;BME280;63132;52.268;5.192;2022-11-15T04:16:46;100542.06;;;8.07;100.00
74627;BME280;63132;52.268;5.192;2022-11-15T04:19:11;100541.25;;;8.27;100.00
74627;BME280;63132;52.268;5.192;2022-11-15T04:21:55;100538.50;;;8.49;100.00
74627;BME280;63132;52.268;5.192;2022-11-15T04:24:39;100537.72;;;8.30;100.00
74627;BME280;63132;52.268;5.192;2022-11-15T04:27:04;100533.78;;;8.49;100.00
74627;BME280;63132;52.268;5.192;2022-11-15T04:29:29;100538.91;;;8.37;100.00
74627;BME280;63132;52.268;5.192;2022-11-15T04:32:06;100533.75;;;8.31;100.00
74627;BME280;63132;52.268;5.192;2022-11-15T04:34:31;100524.72;;;8.27;100.00
74627;BME280;63132;52.268;5.192;2022-11-15T04:36:57;100531.41;;;8.30;100.00
74627;BME280;63132;52.268;5.192;2022-11-15T04:39:42;100527.06;;;8.18;100.00
74627;BME280;63132;52.268;5.192;2022-11-15T04:42:08;100530.63;;;8.15;100.00
74627;BME280;63132;52.268;5.192;2022-11-15T04:44:34;100530.63;;;8.08;100.00
74627;BME280;63132;52.268;5.192;2022-11-15T04:47:00;100529.03;;;8.11;100.00
74627;BME280;63132;52.268;5.192;2022-11-15T04:49:26;100527.47;;;8.27;100.00
74627;BME280;63132;52.268;5.192;2022-11-15T04:51:51;100523.16;;;8.12;100.00
74627;BME280;63132;52.268;5.192;2022-11-15T04:54:16;100529.81;;;8.18;100.00
74627;BME280;63132;52.268;5.192;2022-11-15T04:56:42;100526.66;;;8.30;100.00
74627;BME280;63132;52.268;5.192;2022-11-15T04:59:07;100527.47;;;8.24;100.00
74627;BME280;63132;52.268;5.192;2022-11-15T05:01:33;100526.28;;;8.21;100.00
74627;BME280;63132;52.268;5.192;2022-11-15T05:03:58;100524.31;;;8.22;100.00
74627;BME280;63132;52.268;5.192;2022-11-15T05:06:42;100536.13;;;8.29;100.00
74627;BME280;63132;52.268;5.192;2022-11-15T05:09:07;100547.16;;;8.12;100.00
74627;BME280;63132;52.268;5.192;2022-11-15T05:11:33;100539.69;;;7.98;100.00
74627;BME280;63132;52.268;5.192;2022-11-15T05:13:58;100540.88;;;7.90;100.00
74627;BME280;63132;52.268;5.192;2022-11-15T05:16:23;100540.06;;;8.07;100.00
74627;BME280;63132;52.268;5.192;2022-11-15T05:18:53;100541.66;;;8.04;100.00
74627;BME280;63132;52.268;5.192;2022-11-15T05:21:19;100550.72;;;8.30;100.00
74627;BME280;63132;52.268;5.192;2022-11-15T05:23:45;100540.88;;;8.29;100.00
74627;BME280;63132;52.268;5.192;2022-11-15T05:26:11;100555.84;;;8.28;100.00
74627;BME280;63132;52.268;5.192;2022-11-15T05:28:37;100551.53;;;8.38;100.00
74627;BME280;63132;52.268;5.192;2022-11-15T05:31:08;100550.25;;;8.78;100.00
74627;BME280;63132;52.268;5.192;2022-11-15T05:33:36;100555.03;;;8.70;100.00
74627;BME280;63132;52.268;5.192;2022-11-15T05:36:06;100551.47;;;8.77;100.00
74627;BME280;63132;52.268;5.192;2022-11-15T05:38:33;100555.84;;;8.60;100.00
74627;BME280;63132;52.268;5.192;2022-11-15T05:41:00;100554.22;;;8.80;100.00
74627;BME280;63132;52.268;5.192;2022-11-15T05:43:26;100551.88;;;8.61;100.00
74627;BME280;63132;52.268;5.192;2022-11-15T05:45:52;100549.91;;;8.62;100.00
74627;BME280;63132;52.268;5.192;2022-11-15T05:48:18;100553.84;;;8.60;100.00
74627;BME280;63132;52.268;5.192;2022-11-15T05:50:45;100553.81;;;8.71;100.00
74627;BME280;63132;52.268;5.192;2022-11-15T05:53:14;100546.28;;;8.93;100.00
74627;BME280;63132;52.268;5.192;2022-11-15T05:55:40;100553.81;;;8.78;100.00
74627;BME280;63132;52.268;5.192;2022-11-15T05:58:06;100551.03;;;8.89;100.00
74627;BME280;63132;52.268;5.192;2022-11-15T06:00:31;100551.31;;;9.16;100.00
74627;BME280;63132;52.268;5.192;2022-11-15T06:02:56;100554.53;;;9.11;100.00
74627;BME280;63132;52.268;5.192;2022-11-15T06:05:22;100558.06;;;9.08;100.00
74627;BME280;63132;52.268;5.192;2022-11-15T06:07:47;100557.63;;;9.20;100.00
74627;BME280;63132;52.268;5.192;2022-11-15T06:10:13;100560.81;;;9.08;100.00
74627;BME280;63132;52.268;5.192;2022-11-15T06:12:38;100567.13;;;9.08;100.00
74627;BME280;63132;52.268;5.192;2022-11-15T06:15:04;100560.00;;;9.25;100.00
74627;BME280;63132;52.268;5.192;2022-11-15T06:17:29;100563.19;;;9.17;100.00
74627;BME280;63132;52.268;5.192;2022-11-15T06:19:54;100566.75;;;9.13;100.00
74627;BME280;63132;52.268;5.192;2022-11-15T06:22:20;100577.72;;;9.31;100.00
74627;BME280;63132;52.268;5.192;2022-11-15T06:24:45;100569.03;;;9.29;100.00
74627;BME280;63132;52.268;5.192;2022-11-15T06:27:11;100569.78;;;9.40;100.00
74627;BME280;63132;52.268;5.192;2022-11-15T06:29:37;100568.28;;;9.25;100.00
74627;BME280;63132;52.268;5.192;2022-11-15T06:32:02;100576.59;;;9.18;100.00
74627;BME280;63132;52.268;5.192;2022-11-15T06:34:28;100575.00;;;9.24;100.00
74627;BME280;63132;52.268;5.192;2022-11-15T06:36:53;100573.84;;;9.18;100.00
74627;BME280;63132;52.268;5.192;2022-11-15T06:39:18;100568.75;;;9.09;100.00
74627;BME280;63132;52.268;5.192;2022-11-15T06:41:44;100580.16;;;9.08;100.00
74627;BME280;63132;52.268;5.192;2022-11-15T06:44:09;100575.41;;;9.19;100.00
74627;BME280;63132;52.268;5.192;2022-11-15T06:46:34;100582.13;;;9.14;100.00
74627;BME280;63132;52.268;5.192;2022-11-15T06:49:00;100588.03;;;9.20;100.00
74627;BME280;63132;52.268;5.192;2022-11-15T06:51:25;100584.44;;;9.23;100.00
74627;BME280;63132;52.268;5.192;2022-11-15T06:53:51;100584.53;;;9.09;100.00
74627;BME280;63132;52.268;5.192;2022-11-15T06:56:16;100594.78;;;9.05;100.00
74627;BME280;63132;52.268;5.192;2022-11-15T06:58:41;100585.69;;;9.08;100.00
74627;BME280;63132;52.268;5.192;2022-11-15T07:01:09;100588.09;;;8.99;100.00
74627;BME280;63132;52.268;5.192;2022-11-15T07:03:37;100592.41;;;9.00;100.00
74627;BME280;63132;52.268;5.192;2022-11-15T07:06:03;100591.25;;;9.04;100.00
74627;BME280;63132;52.268;5.192;2022-11-15T07:08:29;100595.19;;;9.00;100.00
74627;BME280;63132;52.268;5.192;2022-11-15T07:10:58;100592.03;;;9.05;100.00
74627;BME280;63132;52.268;5.192;2022-11-15T07:13:25;100593.50;;;9.31;100.00
74627;BME280;63132;52.268;5.192;2022-11-15T07:15:51;100604.59;;;9.20;100.00
74627;BME280;63132;52.268;5.192;2022-11-15T07:18:16;100599.38;;;9.43;100.00
74627;BME280;63132;52.268;5.192;2022-11-15T07:20:42;100597.44;;;9.37;100.00
74627;BME280;63132;52.268;5.192;2022-11-15T07:23:07;100605.38;;;9.28;100.00
74627;BME280;63132;52.268;5.192;2022-11-15T07:25:33;100604.56;;;9.31;100.00
74627;BME280;63132;52.268;5.192;2022-11-15T07:27:59;100615.69;;;9.17;100.00
74627;BME280;63132;52.268;5.192;2022-11-15T07:30:26;100611.34;;;9.05;100.00
74627;BME280;63132;52.268;5.192;2022-11-15T07:33:01;100612.56;;;8.93;100.00
74627;BME280;63132;52.268;5.192;2022-11-15T07:35:27;100619.56;;;9.33;100.00
74627;BME280;63132;52.268;5.192;2022-11-15T07:38:02;100616.06;;;9.11;100.00
74627;BME280;63132;52.268;5.192;2022-11-15T07:40:30;100612.56;;;8.90;100.00
74627;BME280;63132;52.268;5.192;2022-11-15T07:43:04;100614.16;;;8.91;100.00
74627;BME280;63132;52.268;5.192;2022-11-15T07:45:30;100599.97;;;8.78;100.00
74627;BME280;63132;52.268;5.192;2022-11-15T07:47:56;100592.84;;;8.84;100.00
74627;BME280;63132;52.268;5.192;2022-11-15T07:50:25;100589.69;;;8.89;100.00
74627;BME280;63132;52.268;5.192;2022-11-15T07:52:58;100589.69;;;8.89;100.00
74627;BME280;63132;52.268;5.192;2022-11-15T07:55:25;100600.72;;;8.93;100.00
74627;BME280;63132;52.268;5.192;2022-11-15T07:57:52;100601.13;;;9.02;100.00
74627;BME280;63132;52.268;5.192;2022-11-15T08:00:18;100600.72;;;9.00;100.00
74627;BME280;63132;52.268;5.192;2022-11-15T08:02:44;100592.03;;;8.98;100.00
74627;BME280;63132;52.268;5.192;2022-11-15T08:05:09;100590.50;;;8.90;100.00
74627;BME280;63132;52.268;5.192;2022-11-15T08:07:35;100593.63;;;8.92;100.00
74627;BME280;63132;52.268;5.192;2022-11-15T08:10:00;100595.63;;;8.80;100.00
74627;BME280;63132;52.268;5.192;2022-11-15T08:12:27;100593.66;;;8.84;100.00
74627;BME280;63132;52.268;5.192;2022-11-15T08:14:54;100588.53;;;8.86;100.00
74627;BME280;63132;52.268;5.192;2022-11-15T08:17:21;100593.25;;;8.82;100.00
74627;BME280;63132;52.268;5.192;2022-11-15T08:19:46;100597.59;;;8.83;100.00
74627;BME280;63132;52.268;5.192;2022-11-15T08:22:12;100593.66;;;8.84;100.00
74627;BME280;63132;52.268;5.192;2022-11-15T08:24:37;100592.06;;;8.91;100.00
74627;BME280;63132;52.268;5.192;2022-11-15T08:27:03;100588.88;;;8.99;100.00
74627;BME280;63132;52.268;5.192;2022-11-15T08:29:28;100586.13;;;8.99;100.00
74627;BME280;63132;52.268;5.192;2022-11-15T08:31:55;100582.59;;;8.95;100.00
74627;BME280;63132;52.268;5.192;2022-11-15T08:34:21;100576.53;;;9.29;100.00
74627;BME280;63132;52.268;5.192;2022-11-15T08:36:47;100574.63;;;9.15;100.00
74627;BME280;63132;52.268;5.192;2022-11-15T08:39:12;100569.06;;;9.26;100.00
74627;BME280;63132;52.268;5.192;2022-11-15T08:41:38;100564.31;;;9.26;100.00
74627;BME280;63132;52.268;5.192;2022-11-15T08:44:04;100569.44;;;9.31;100.00
74627;BME280;63132;52.268;5.192;2022-11-15T08:46:29;100549.31;;;9.27;100.00
74627;BME280;63132;52.268;5.192;2022-11-15T08:48:54;100553.25;;;9.30;100.00
74627;BME280;63132;52.268;5.192;2022-11-15T08:51:20;100556.03;;;9.26;100.00
74627;BME280;63132;52.268;5.192;2022-11-15T08:53:45;100547.81;;;9.12;100.00
74627;BME280;63132;52.268;5.192;2022-11-15T08:56:14;100554.91;;;9.13;100.00
74627;BME280;63132;52.268;5.192;2022-11-15T08:58:40;100556.44;;;9.21;100.00
74627;BME280;63132;52.268;5.192;2022-11-15T09:01:06;100560.31;;;9.38;100.00
74627;BME280;63132;52.268;5.192;2022-11-15T09:03:31;100550.84;;;9.35;100.00
74627;BME280;63132;52.268;5.192;2022-11-15T09:05:58;100552.44;;;9.36;100.00
74627;BME280;63132;52.268;5.192;2022-11-15T09:08:28;100548.47;;;9.41;100.00
74627;BME280;63132;52.268;5.192;2022-11-15T09:10:54;100548.84;;;9.43;100.00
74627;BME280;63132;52.268;5.192;2022-11-15T09:13:19;100551.88;;;9.70;100.00
74627;BME280;63132;52.268;5.192;2022-11-15T09:15:45;100547.53;;;9.69;100.00
74627;BME280;63132;52.268;5.192;2022-11-15T09:18:10;100545.97;;;9.61;100.00
74627;BME280;63132;52.268;5.192;2022-11-15T09:20:35;100542.75;;;9.77;100.00
74627;BME280;63132;52.268;5.192;2022-11-15T09:23:02;100537.03;;;10.02;98.75
74627;BME280;63132;52.268;5.192;2022-11-15T09:25:28;100544.41;;;10.22;96.82
74627;BME280;63132;52.268;5.192;2022-11-15T09:27:55;100542.84;;;10.14;97.09
74627;BME280;63132;52.268;5.192;2022-11-15T09:30:20;100545.59;;;10.18;97.24
74627;BME280;63132;52.268;5.192;2022-11-15T09:32:46;100539.13;;;10.35;95.08
74627;BME280;63132;52.268;5.192;2022-11-15T09:35:12;100534.00;;;10.37;95.02
74627;BME280;63132;52.268;5.192;2022-11-15T09:37:37;100532.09;;;10.27;95.86
74627;BME280;63132;52.268;5.192;2022-11-15T09:40:03;100526.25;;;10.59;94.79
74627;BME280;63132;52.268;5.192;2022-11-15T09:45:20;100532.59;;;10.60;93.63
74627;BME280;63132;52.268;5.192;2022-11-15T09:50:47;100519.31;;;10.40;94.33
74627;BME280;63132;52.268;5.192;2022-11-15T09:53:22;100519.31;;;10.40;94.91
74627;BME280;63132;52.268;5.192;2022-11-15T09:55:58;100522.78;;;10.51;93.39
74627;BME280;63132;52.268;5.192;2022-11-15T10:00:56;100517.97;;;10.56;92.46
74627;BME280;63132;52.268;5.192;2022-11-15T10:03:28;100529.13;;;10.48;92.48
74627;BME280;63132;52.268;5.192;2022-11-15T10:06:01;100524.00;;;10.47;93.04
74627;BME280;63132;52.268;5.192;2022-11-15T10:11:24;100527.31;;;11.06;90.30
74627;BME280;63132;52.268;5.192;2022-11-15T10:13:52;100522.88;;;11.13;88.84
74627;BME280;63132;52.268;5.192;2022-11-15T10:19:15;100523.50;;;11.27;87.61
74627;BME280;63132;52.268;5.192;2022-11-15T10:24:19;100503.94;;;11.38;85.47
74627;BME280;63132;52.268;5.192;2022-11-15T10:26:49;100501.59;;;11.36;85.26
74627;BME280;63132;52.268;5.192;2022-11-15T10:29:19;100507.72;;;11.21;85.10
74627;BME280;63132;52.268;5.192;2022-11-15T10:31:45;100500.81;;;11.05;85.72
74627;BME280;63132;52.268;5.192;2022-11-15T10:34:14;100507.63;;;10.97;85.77
74627;BME280;63132;52.268;5.192;2022-11-15T10:36:45;100495.38;;;10.95;85.26
74627;BME280;63132;52.268;5.192;2022-11-15T10:39:14;100485.91;;;10.96;84.38
74627;BME280;63132;52.268;5.192;2022-11-15T10:41:41;100477.44;;;10.72;85.69
74627;BME280;63132;52.268;5.192;2022-11-15T10:46:34;100471.69;;;10.56;86.79
74627;BME280;63132;52.268;5.192;2022-11-15T10:49:16;100463.38;;;10.56;86.26
74627;BME280;63132;52.268;5.192;2022-11-15T10:51:52;100461.91;;;10.48;87.54
74627;BME280;63132;52.268;5.192;2022-11-15T10:57:27;100451.44;;;10.63;86.49
74627;BME280;63132;52.268;5.192;2022-11-15T11:05:34;100443.34;;;10.79;85.62
74627;BME280;63132;52.268;5.192;2022-11-15T11:08:09;100442.03;;;10.87;85.44
74627;BME280;63132;52.268;5.192;2022-11-15T11:10:58;100451.66;;;10.79;85.02
74627;BME280;63132;52.268;5.192;2022-11-15T11:13:29;100449.47;;;10.97;84.30
74627;BME280;63132;52.268;5.192;2022-11-15T11:21:18;100430.78;;;11.01;83.35
74627;BME280;63132;52.268;5.192;2022-11-15T11:23:54;100428.44;;;11.00;84.03
74627;BME280;63132;52.268;5.192;2022-11-15T11:34:41;100433.97;;;11.00;81.30
74627;BME280;63132;52.268;5.192;2022-11-15T11:37:24;100426.41;;;11.04;82.01
74627;BME280;63132;52.268;5.192;2022-11-15T11:40:01;100426.72;;;11.09;81.53
74627;BME280;63132;52.268;5.192;2022-11-15T11:48:27;100412.91;;;11.06;80.94
74627;BME280;63132;52.268;5.192;2022-11-15T11:51:11;100412.16;;;11.02;80.63
74627;BME280;63132;52.268;5.192;2022-11-15T11:53:42;100411.78;;;11.03;81.89
74627;BME280;63132;52.268;5.192;2022-11-15T11:56:23;100405.38;;;11.06;81.35
74627;BME280;63132;52.268;5.192;2022-11-15T11:58:50;100385.66;;;11.01;81.41
74627;BME280;63132;52.268;5.192;2022-11-15T12:01:31;100377.13;;;11.19;81.02
74627;BME280;63132;52.268;5.192;2022-11-15T12:04:21;100365.53;;;11.24;80.30
74627;BME280;63132;52.268;5.192;2022-11-15T12:06:53;100357.66;;;11.22;80.48
74627;BME280;63132;52.268;5.192;2022-11-15T12:09:30;100359.91;;;11.04;81.18
74627;BME280;63132;52.268;5.192;2022-11-15T12:17:13;100353.38;;;11.18;79.28
74627;BME280;63132;52.268;5.192;2022-11-15T12:19:39;100349.88;;;11.14;79.57
74627;BME280;63132;52.268;5.192;2022-11-15T12:22:38;100341.66;;;11.06;80.50
74627;BME280;63132;52.268;5.192;2022-11-15T12:25:17;100333.06;;;11.24;79.46
74627;BME280;63132;52.268;5.192;2022-11-15T12:27:52;100325.28;;;11.16;78.50
74627;BME280;63132;52.268;5.192;2022-11-15T12:30:21;100327.81;;;11.06;78.87
74627;BME280;63132;52.268;5.192;2022-11-15T12:32:58;100314.94;;;11.20;78.43
74627;BME280;63132;52.268;5.192;2022-11-15T12:35:33;100323.91;;;11.04;79.11
74627;BME280;63132;52.268;5.192;2022-11-15T12:38:00;100316.50;;;11.21;77.99
74627;BME280;63132;52.268;5.192;2022-11-15T12:40:39;100316.50;;;11.21;78.31
74627;BME280;63132;52.268;5.192;2022-11-15T12:43:38;100308.22;;;11.17;77.58
74627;BME280;63132;52.268;5.192;2022-11-15T12:46:05;100310.22;;;11.17;77.55
74627;BME280;63132;52.268;5.192;2022-11-15T12:51:01;100299.19;;;11.13;78.94
74627;BME280;63132;52.268;5.192;2022-11-15T12:53:28;100301.63;;;11.34;77.64
74627;BME280;63132;52.268;5.192;2022-11-15T13:07:05;100263.78;;;11.48;76.20
74627;BME280;63132;52.268;5.192;2022-11-15T13:12:47;100261.41;;;11.70;75.23
74627;BME280;63132;52.268;5.192;2022-11-15T13:15:00;100251.34;;;11.76;74.07
74627;BME280;63132;52.268;5.192;2022-11-15T13:17:33;100252.06;;;11.80;74.79
74627;BME280;63132;52.268;5.192;2022-11-15T13:22:38;100250.56;;;11.75;74.68
74627;BME280;63132;52.268;5.192;2022-11-15T13:33:22;100229.44;;;11.61;73.83
74627;BME280;63132;52.268;5.192;2022-11-15T13:35:51;100227.88;;;11.41;75.26
74627;BME280;63132;52.268;5.192;2022-11-15T13:38:58;100224.34;;;11.36;74.86
74627;BME280;63132;52.268;5.192;2022-11-15T13:41:30;100223.41;;;11.23;75.27
74627;BME280;63132;52.268;5.192;2022-11-15T13:43:57;100215.47;;;11.25;74.87
74627;BME280;63132;52.268;5.192;2022-11-15T13:46:30;100207.16;;;11.25;75.58
74627;BME280;63132;52.268;5.192;2022-11-15T13:49:08;100208.94;;;11.35;76.03
74627;BME280;63132;52.268;5.192;2022-11-15T13:51:46;100208.53;;;11.14;75.90
74627;BME280;63132;52.268;5.192;2022-11-15T13:56:57;100198.66;;;11.13;76.45
74627;BME280;63132;52.268;5.192;2022-11-15T13:59:35;100198.56;;;10.96;77.17
74627;BME280;63132;52.268;5.192;2022-11-15T14:02:10;100198.78;;;11.05;76.53
74627;BME280;63132;52.268;5.192;2022-11-15T14:04:39;100200.13;;;10.97;77.33
74627;BME280;63132;52.268;5.192;2022-11-15T14:07:16;100195.13;;;10.89;77.97
74627;BME280;63132;52.268;5.192;2022-11-15T14:09:42;100194.22;;;10.95;77.25
74627;BME280;63132;52.268;5.192;2022-11-15T14:12:30;100183.88;;;10.72;77.46
74627;BME280;63132;52.268;5.192;2022-11-15T14:14:58;100176.53;;;10.62;78.34
74627;BME280;63132;52.268;5.192;2022-11-15T14:19:56;100177.44;;;10.79;77.96
74627;BME280;63132;52.268;5.192;2022-11-15T14:22:27;100171.78;;;10.63;78.31
74627;BME280;63132;52.268;5.192;2022-11-15T14:25:22;100164.81;;;10.78;78.38
74627;BME280;63132;52.268;5.192;2022-11-15T14:28:14;100163.69;;;10.75;78.27
74627;BME280;63132;52.268;5.192;2022-11-15T14:30:41;100157.94;;;10.86;78.75
74627;BME280;63132;52.268;5.192;2022-11-15T14:33:29;100151.38;;;11.00;78.64
74627;BME280;63132;52.268;5.192;2022-11-15T14:35:57;100151.28;;;10.84;77.99
74627;BME280;63132;52.268;5.192;2022-11-15T14:38:24;100147.50;;;10.74;79.04
74627;BME280;63132;52.268;5.192;2022-11-15T14:40:50;100137.84;;;10.82;78.59
74627;BME280;63132;52.268;5.192;2022-11-15T14:43:15;100140.44;;;10.69;78.61
74627;BME280;63132;52.268;5.192;2022-11-15T14:45:41;100130.44;;;10.75;79.36
74627;BME280;63132;52.268;5.192;2022-11-15T14:48:07;100126.59;;;10.69;79.26
74627;BME280;63132;52.268;5.192;2022-11-15T14:50:33;100117.50;;;10.69;77.81
74627;BME280;63132;52.268;5.192;2022-11-15T14:52:59;100117.38;;;10.76;77.78
74627;BME280;63132;52.268;5.192;2022-11-15T14:55:33;100114.34;;;10.90;76.72
74627;BME280;63132;52.268;5.192;2022-11-15T14:58:05;100112.16;;;10.81;76.80
74627;BME280;63132;52.268;5.192;2022-11-15T15:00:34;100095.66;;;10.74;77.22